Time;durP1;ratioP1;P1;durP2;ratioP2;P2;SDS_P1;SDS_P2;PMS_P1;PMS_P2;Temp;Humidity;BMP_temperature;BMP_pressure;BME280_temperature;BME280_humidity;BME280_pressure;Samples;Min_cycle;Max_cycle;Signal;HPM_P1;HPM_P2
2024/02/22 00:01:05;;;;;;;2.57;2.37;;;11.50;99.90;;;;;;5043085;28;20698;-24
2024/02/22 00:03:31;;;;;;;2.10;2.00;;;11.50;99.90;;;;;;5044964;28;20438;-23
2024/02/22 00:05:57;;;;;;;3.10;2.00;;;11.50;99.90;;;;;;5027266;28;20422;-24
2024/02/22 00:08:23;;;;;;;2.50;2.07;;;11.50;99.90;;;;;;5043346;28;20439;-24
2024/02/22 00:10:52;;;;;;;2.30;2.10;;;11.50;99.90;;;;;;5024895;28;20515;-24
2024/02/22 00:13:18;;;;;;;2.33;2.10;;;11.50;99.90;;;;;;5044350;28;20674;-26
2024/02/22 00:15:47;;;;;;;2.30;2.10;;;11.50;99.90;;;;;;5048224;28;20434;-23
2024/02/22 00:18:13;;;;;;;1.97;1.80;;;11.50;99.90;;;;;;5042538;28;21279;-23
2024/02/22 00:20:39;;;;;;;2.53;2.33;;;11.50;99.90;;;;;;5023780;28;20510;-23
2024/02/22 00:23:05;;;;;;;3.80;2.37;;;11.50;99.90;;;;;;5009617;28;20493;-30
2024/02/22 00:25:34;;;;;;;2.80;2.20;;;11.50;99.90;;;;;;5044448;28;20777;-24
2024/02/22 00:28:02;;;;;;;3.00;2.40;;;11.50;99.90;;;;;;5025702;28;20421;-23
2024/02/22 00:30:30;;;;;;;2.10;1.90;;;11.50;99.90;;;;;;5043385;28;20454;-23
2024/02/22 00:32:58;;;;;;;3.60;2.07;;;11.50;99.90;;;;;;5044174;28;20433;-24
2024/02/22 00:35:27;;;;;;;2.17;1.97;;;11.50;99.90;;;;;;5042752;28;20438;-25
2024/02/22 00:37:53;;;;;;;2.00;1.90;;;11.50;99.90;;;;;;5046781;28;20823;-27
2024/02/22 00:40:19;;;;;;;2.70;2.13;;;11.60;99.90;;;;;;5049510;28;20478;-25
2024/02/22 00:42:45;;;;;;;3.10;2.17;;;11.50;99.90;;;;;;5048741;28;20455;-24
2024/02/22 00:45:12;;;;;;;3.40;1.90;;;11.50;99.90;;;;;;5046455;28;20463;-24
2024/02/22 00:47:42;;;;;;;2.70;1.90;;;11.50;99.90;;;;;;5047606;28;20423;-25
2024/02/22 00:50:08;;;;;;;1.90;1.80;;;11.50;99.90;;;;;;5027766;28;20439;-25
2024/02/22 00:52:36;;;;;;;2.63;2.43;;;11.50;99.90;;;;;;5034170;28;20437;-25
2024/02/22 00:55:03;;;;;;;2.13;1.83;;;11.50;99.90;;;;;;5026568;28;20458;-25
2024/02/22 00:57:31;;;;;;;2.20;2.00;;;11.40;99.90;;;;;;5039564;23;21080;-23
2024/02/22 00:59:57;;;;;;;2.00;1.87;;;11.50;99.90;;;;;;5040004;28;20467;-23
2024/02/22 01:02:26;;;;;;;2.03;1.83;;;11.50;99.90;;;;;;5040724;28;21247;-23
2024/02/22 01:04:53;;;;;;;2.23;2.03;;;11.50;99.90;;;;;;5058458;28;20529;-23
2024/02/22 01:07:21;;;;;;;2.63;2.00;;;11.50;99.90;;;;;;5061666;28;20414;-25
2024/02/22 01:09:48;;;;;;;2.00;1.90;;;11.30;99.90;;;;;;5060976;28;20425;-23
2024/02/22 01:12:16;;;;;;;2.37;2.00;;;11.60;99.90;;;;;;5043865;28;20430;-23
2024/02/22 01:14:42;;;;;;;2.50;2.20;;;11.50;99.90;;;;;;5042759;28;20437;-23
2024/02/22 01:17:08;;;;;;;3.70;1.90;;;11.50;99.90;;;;;;5041485;28;21224;-23
2024/02/22 01:19:34;;;;;;;2.07;1.87;;;11.50;99.90;;;;;;5043034;28;20488;-23
2024/02/22 01:22:04;;;;;;;2.00;1.90;;;11.50;99.90;;;;;;5061327;28;20502;-23
2024/02/22 01:24:32;;;;;;;2.17;1.77;;;11.50;99.90;;;;;;5060899;28;20446;-24
2024/02/22 01:26:58;;;;;;;1.80;1.70;;;11.50;99.90;;;;;;5053229;28;20506;-25
2024/02/22 01:29:26;;;;;;;2.00;1.80;;;11.50;99.90;;;;;;5040525;28;20476;-31
2024/02/22 01:31:53;;;;;;;2.17;1.70;;;11.50;99.90;;;;;;5054270;28;20781;-26
2024/02/22 01:34:19;;;;;;;2.00;1.90;;;11.50;99.90;;;;;;5060855;28;20445;-24
2024/02/22 01:36:45;;;;;;;2.23;1.80;;;11.50;99.90;;;;;;5042325;28;21053;-23
2024/02/22 01:39:12;;;;;;;2.23;1.73;;;11.50;99.90;;;;;;5061568;28;20457;-24
2024/02/22 01:41:38;;;;;;;1.83;1.73;;;11.70;99.90;;;;;;5026895;28;20450;-23
2024/02/22 01:44:06;;;;;;;1.83;1.73;;;11.50;99.90;;;;;;5044327;28;20442;-23
2024/02/22 01:46:32;;;;;;;1.97;1.87;;;11.50;99.90;;;;;;5042145;28;20445;-26
2024/02/22 01:49:00;;;;;;;2.10;1.90;;;11.50;99.90;;;;;;5042655;28;20414;-23
2024/02/22 01:51:28;;;;;;;2.63;2.07;;;11.50;99.90;;;;;;5008006;28;20466;-24
2024/02/22 01:53:54;;;;;;;3.30;1.90;;;11.50;99.90;;;;;;5054588;28;20524;-24
2024/02/22 01:56:22;;;;;;;2.20;1.93;;;11.50;99.90;;;;;;5042461;28;20418;-23
2024/02/22 01:58:50;;;;;;;2.33;1.70;;;11.60;99.90;;;;;;5060470;28;20465;-24
2024/02/22 02:01:23;;;;;;;1.60;1.50;;;11.50;99.90;;;;;;5041852;28;20492;-24
2024/02/22 02:03:50;;;;;;;1.90;1.67;;;11.50;99.90;;;;;;5060559;28;20433;-23
2024/02/22 02:06:17;;;;;;;2.17;2.00;;;11.50;99.90;;;;;;5060129;28;20928;-23
2024/02/22 02:08:43;;;;;;;5.40;1.80;;;11.50;99.90;;;;;;5041946;28;20558;-23
2024/02/22 02:11:09;;;;;;;1.90;1.80;;;11.50;99.90;;;;;;5059928;28;20532;-23
2024/02/22 02:13:36;;;;;;;1.87;1.77;;;11.50;99.90;;;;;;5060455;28;20995;-24
2024/02/22 02:16:02;;;;;;;1.67;1.57;;;11.50;99.90;;;;;;5059927;28;20944;-24
2024/02/22 02:18:28;;;;;;;1.60;1.50;;;11.50;99.90;;;;;;5041073;28;20457;-23
2024/02/22 02:21:09;;;;;;;4.33;1.70;;;11.50;99.90;;;;;;5051295;28;20462;-23
2024/02/22 02:24:01;;;;;;;2.30;1.63;;;11.50;99.90;;;;;;5021618;28;20442;-24
2024/02/22 02:26:27;;;;;;;2.10;1.57;;;11.50;99.90;;;;;;5038287;28;20435;-23
2024/02/22 02:28:53;;;;;;;1.60;1.50;;;11.50;99.90;;;;;;5054921;28;20924;-24
2024/02/22 02:31:21;;;;;;;1.60;1.50;;;11.50;99.90;;;;;;5059936;28;20413;-24
2024/02/22 02:33:47;;;;;;;1.50;1.40;;;11.50;99.90;;;;;;5059419;28;20449;-24
2024/02/22 02:36:13;;;;;;;1.50;1.40;;;11.50;99.90;;;;;;5041706;28;20975;-25
2024/02/22 02:38:42;;;;;;;1.70;1.60;;;11.50;99.90;;;;;;5059789;28;20647;-23
2024/02/22 02:41:08;;;;;;;2.00;1.77;;;11.50;99.90;;;;;;5060061;28;20457;-23
2024/02/22 02:43:37;;;;;;;2.67;1.60;;;11.50;99.90;;;;;;5041844;28;20454;-23
2024/02/22 02:46:03;;;;;;;1.87;1.60;;;11.50;99.90;;;;;;5059590;28;21015;-23
2024/02/22 02:48:29;;;;;;;1.50;1.40;;;11.50;99.90;;;;;;5041517;28;20932;-25
2024/02/22 02:50:59;;;;;;;2.23;1.70;;;11.50;99.90;;;;;;5059277;28;20422;-24
2024/02/22 02:53:28;;;;;;;1.60;1.50;;;11.50;99.90;;;;;;5059719;28;20472;-23
2024/02/22 02:55:53;;;;;;;3.23;1.33;;;11.50;99.90;;;;;;5059046;28;20426;-23
2024/02/22 02:58:22;;;;;;;2.63;1.57;;;11.40;99.90;;;;;;5025341;28;20438;-24
2024/02/22 03:00:48;;;;;;;2.50;1.70;;;11.50;99.90;;;;;;5040701;28;20466;-24
2024/02/22 03:03:14;;;;;;;1.60;1.50;;;11.50;99.90;;;;;;5042029;28;20468;-23
2024/02/22 03:05:40;;;;;;;2.20;1.77;;;11.50;99.90;;;;;;5041959;28;20509;-24
2024/02/22 03:08:09;;;;;;;1.57;1.47;;;11.50;99.90;;;;;;5041732;28;20418;-23
2024/02/22 03:10:37;;;;;;;1.80;1.30;;;11.50;99.90;;;;;;5021233;28;20438;-23
2024/02/22 03:13:11;;;;;;;1.77;1.40;;;11.50;99.90;;;;;;5043624;28;20555;-24
2024/02/22 03:15:37;;;;;;;1.70;1.60;;;11.50;99.90;;;;;;5045304;28;20464;-23
2024/02/22 03:18:04;;;;;;;1.60;1.50;;;11.50;99.90;;;;;;5063155;28;20445;-23
2024/02/22 03:20:30;;;;;;;1.47;1.37;;;11.50;99.90;;;;;;5045225;28;21002;-23
2024/02/22 03:22:56;;;;;;;1.60;1.50;;;11.50;99.90;;;;;;5045036;28;20532;-24
2024/02/22 03:25:22;;;;;;;1.63;1.50;;;11.50;99.90;;;;;;5063437;28;20466;-23
2024/02/22 03:27:49;;;;;;;1.50;1.40;;;11.50;99.90;;;;;;5063239;28;20426;-24
2024/02/22 03:30:16;;;;;;;1.63;1.53;;;11.70;99.90;;;;;;5045940;28;20454;-23
2024/02/22 03:32:42;;;;;;;1.73;1.57;;;11.50;99.90;;;;;;5026388;28;20415;-24
2024/02/22 03:35:11;;;;;;;1.80;1.70;;;11.50;99.90;;;;;;5027152;28;20783;-23
2024/02/22 03:37:38;;;;;;;1.40;1.30;;;11.50;99.90;;;;;;5062964;28;20840;-23
2024/02/22 03:40:06;;;;;;;1.67;1.30;;;11.50;99.90;;;;;;5063181;28;20469;-24
2024/02/22 03:42:33;;;;;;;1.53;1.43;;;11.50;99.90;;;;;;5062926;28;20521;-23
2024/02/22 03:44:59;;;;;;;1.50;1.40;;;11.50;99.90;;;;;;5045395;28;20876;-23
2024/02/22 03:47:25;;;;;;;2.43;1.70;;;11.50;99.90;;;;;;5063040;28;20410;-25
2024/02/22 03:49:51;;;;;;;1.77;1.67;;;11.50;99.90;;;;;;5062966;28;20451;-24
2024/02/22 03:52:17;;;;;;;1.40;1.30;;;11.50;99.90;;;;;;5011637;28;21298;-24
2024/02/22 03:54:46;;;;;;;1.77;1.67;;;11.50;99.90;;;;;;5062858;28;20953;-23
2024/02/22 03:57:12;;;;;;;1.40;1.30;;;11.50;99.90;;;;;;5062337;28;20441;-23
2024/02/22 03:59:37;;;;;;;1.60;1.50;;;11.50;99.90;;;;;;5062801;28;20883;-23
2024/02/22 04:02:04;;;;;;;2.30;1.60;;;11.40;99.90;;;;;;5062911;28;20487;-24
2024/02/22 04:04:30;;;;;;;1.83;1.20;;;11.50;99.90;;;;;;5040450;28;20203;-23
2024/02/22 04:06:58;;;;;;;2.33;1.60;;;11.50;99.90;;;;;;5062520;28;20524;-24
2024/02/22 04:09:25;;;;;;;2.07;1.70;;;11.50;99.90;;;;;;5062850;28;20488;-24
2024/02/22 04:11:51;;;;;;;1.70;1.60;;;11.50;99.90;;;;;;5062328;28;20545;-24
2024/02/22 04:14:17;;;;;;;1.90;1.80;;;11.80;99.90;;;;;;5062487;28;20541;-23
2024/02/22 04:16:45;;;;;;;1.73;1.63;;;11.40;99.90;;;;;;5043860;28;20449;-23
2024/02/22 04:19:11;;;;;;;1.60;1.50;;;11.50;99.90;;;;;;5061856;28;21328;-23
2024/02/22 04:21:42;;;;;;;1.60;1.50;;;11.50;99.90;;;;;;5062277;28;20422;-24
2024/02/22 04:24:08;;;;;;;1.53;1.43;;;11.50;99.90;;;;;;5061972;28;21023;-24
2024/02/22 04:26:50;;;;;;;1.80;1.70;;;11.50;99.90;;;;;;5044034;28;20413;-24
2024/02/22 04:29:17;;;;;;;1.50;1.40;;;11.50;99.90;;;;;;5054326;28;20999;-23
2024/02/22 04:31:49;;;;;;;1.90;1.80;;;11.50;99.90;;;;;;5043406;28;20457;-24
2024/02/22 04:34:15;;;;;;;1.80;1.70;;;11.50;99.90;;;;;;5062191;28;20456;-23
2024/02/22 04:36:41;;;;;;;1.50;1.40;;;11.50;99.90;;;;;;5061617;28;20422;-27
2024/02/22 04:39:09;;;;;;;1.87;1.77;;;11.50;99.90;;;;;;5043660;28;20414;-23
2024/02/22 04:41:40;;;;;;;1.80;1.70;;;11.50;99.90;;;;;;5061829;28;20971;-23
2024/02/22 04:44:07;;;;;;;1.50;1.40;;;11.40;99.90;;;;;;5043843;28;21300;-23
2024/02/22 04:46:35;;;;;;;1.40;1.30;;;11.40;99.90;;;;;;5043417;28;20422;-22
2024/02/22 04:49:04;;;;;;;1.60;1.50;;;11.50;99.90;;;;;;5043801;28;20422;-23
2024/02/22 04:51:33;;;;;;;1.50;1.40;;;11.50;99.90;;;;;;5043508;28;20418;-23
2024/02/22 04:54:00;;;;;;;1.60;1.50;;;11.50;99.90;;;;;;5043192;28;20434;-24
2024/02/22 04:56:28;;;;;;;1.70;1.60;;;11.50;99.90;;;;;;5043382;28;20984;-24
2024/02/22 04:59:00;;;;;;;2.87;1.50;;;11.30;99.90;;;;;;5042497;28;20434;-25
2024/02/22 05:01:30;;;;;;;1.77;1.60;;;11.50;99.90;;;;;;5026815;28;20618;-24
2024/02/22 05:03:57;;;;;;;1.70;1.60;;;11.50;99.90;;;;;;5060617;28;20450;-24
2024/02/22 05:06:23;;;;;;;2.10;1.50;;;11.50;99.90;;;;;;5057790;28;20189;-24
2024/02/22 05:08:49;;;;;;;1.60;1.50;;;11.50;99.90;;;;;;5040836;28;20407;-25
2024/02/22 05:11:17;;;;;;;1.50;1.40;;;11.50;99.90;;;;;;5009932;28;20873;-24
2024/02/22 05:13:43;;;;;;;2.07;1.70;;;11.50;99.90;;;;;;5042568;28;21150;-24
2024/02/22 05:16:09;;;;;;;1.70;1.60;;;11.50;99.90;;;;;;5042442;28;20525;-24
2024/02/22 05:18:35;;;;;;;1.80;1.70;;;11.50;99.90;;;;;;5060546;28;20502;-24
2024/02/22 05:21:04;;;;;;;1.87;1.67;;;11.50;99.90;;;;;;5042349;28;20523;-24
2024/02/22 05:23:30;;;;;;;1.70;1.60;;;11.50;99.90;;;;;;5042627;28;20442;-24
2024/02/22 05:25:56;;;;;;;1.73;1.47;;;11.50;99.90;;;;;;5061439;28;20472;-24
2024/02/22 05:28:24;;;;;;;1.60;1.50;;;11.50;99.90;;;;;;5060216;28;20836;-24
2024/02/22 05:30:51;;;;;;;1.63;1.53;;;11.50;99.90;;;;;;5060417;28;20422;-24
2024/02/22 05:33:17;;;;;;;1.70;1.60;;;11.50;99.90;;;;;;5059945;28;20449;-25
2024/02/22 05:35:43;;;;;;;1.33;1.20;;;11.50;99.90;;;;;;5041470;28;20450;-24
2024/02/22 05:38:09;;;;;;;1.57;1.43;;;11.50;99.90;;;;;;5042064;28;20461;-24
2024/02/22 05:40:35;;;;;;;5.03;1.67;;;11.50;99.90;;;;;;5060386;28;20544;-24
2024/02/22 05:43:04;;;;;;;1.30;1.20;;;11.50;99.90;;;;;;5060433;28;20454;-24
2024/02/22 05:45:34;;;;;;;1.43;1.33;;;11.50;99.90;;;;;;5042494;28;20414;-24
2024/02/22 05:48:02;;;;;;;1.50;1.40;;;11.50;99.90;;;;;;5042017;28;20422;-25
2024/02/22 05:50:28;;;;;;;1.63;1.53;;;11.50;99.90;;;;;;5042424;28;20442;-24
2024/02/22 05:52:56;;;;;;;1.47;1.37;;;11.50;99.90;;;;;;5044011;28;20489;-24
2024/02/22 05:55:22;;;;;;;2.43;1.37;;;11.50;99.90;;;;;;5042640;28;20895;-24
2024/02/22 05:57:51;;;;;;;1.50;1.40;;;11.50;99.90;;;;;;5041989;28;20448;-25
2024/02/22 06:00:18;;;;;;;1.50;1.40;;;11.50;99.90;;;;;;5060520;28;20501;-24
2024/02/22 06:02:45;;;;;;;2.70;1.67;;;11.50;99.90;;;;;;5060648;28;20422;-25
2024/02/22 06:05:14;;;;;;;1.93;1.40;;;11.50;99.90;;;;;;5059877;28;20448;-23
2024/02/22 06:07:40;;;;;;;2.00;1.80;;;11.50;99.90;;;;;;5059834;28;20509;-24
2024/02/22 06:10:09;;;;;;;1.67;1.57;;;11.50;99.90;;;;;;5042012;28;20557;-24
2024/02/22 06:12:36;;;;;;;1.50;1.40;;;11.50;99.90;;;;;;5041563;28;20465;-24
2024/02/22 06:15:06;;;;;;;2.40;1.60;;;11.50;99.90;;;;;;5041975;28;20532;-24
2024/02/22 06:17:32;;;;;;;1.23;1.13;;;11.50;99.90;;;;;;5041577;28;21027;-23
2024/02/22 06:20:00;;;;;;;4.13;2.37;;;11.50;99.90;;;;;;5059711;28;20865;-24
2024/02/22 06:22:26;;;;;;;1.40;1.30;;;11.50;99.90;;;;;;5060058;28;21106;-24
2024/02/22 06:24:52;;;;;;;1.97;1.30;;;11.50;99.90;;;;;;5042127;28;21121;-25
2024/02/22 06:27:21;;;;;;;1.40;1.30;;;11.50;99.90;;;;;;5037645;28;20421;-24
2024/02/22 06:29:49;;;;;;;1.77;1.40;;;11.50;99.90;;;;;;5059764;28;20460;-24
2024/02/22 06:32:18;;;;;;;2.10;1.43;;;11.50;99.90;;;;;;5059942;28;20964;-24
2024/02/22 06:34:46;;;;;;;1.80;1.70;;;11.60;99.90;;;;;;5041301;28;20453;-24
2024/02/22 06:37:12;;;;;;;1.20;1.10;;;11.50;99.90;;;;;;5041642;28;20449;-24
2024/02/22 06:39:40;;;;;;;1.73;1.50;;;11.50;99.90;;;;;;5040840;28;21218;-24
2024/02/22 06:42:09;;;;;;;1.83;1.43;;;11.50;99.90;;;;;;5043990;28;20477;-24
2024/02/22 06:44:35;;;;;;;1.40;1.20;;;11.50;99.90;;;;;;5059917;28;21322;-24
2024/02/22 06:47:01;;;;;;;2.07;1.57;;;11.50;99.90;;;;;;5039911;28;20437;-25
2024/02/22 06:49:31;;;;;;;1.43;1.23;;;11.50;99.90;;;;;;5007953;28;20540;-24
2024/02/22 06:52:00;;;;;;;1.30;1.20;;;11.50;99.90;;;;;;5046191;28;20432;-25
2024/02/22 06:54:26;;;;;;;2.20;1.47;;;11.50;99.90;;;;;;5041574;28;20437;-24
2024/02/22 06:56:53;;;;;;;1.40;1.30;;;11.50;99.90;;;;;;5043716;28;20457;-24
2024/02/22 06:59:20;;;;;;;2.70;1.40;;;11.50;99.90;;;;;;5048141;28;20465;-24
2024/02/22 07:01:48;;;;;;;2.40;1.37;;;11.50;99.90;;;;;;5023857;28;21222;-24
2024/02/22 07:04:14;;;;;;;1.90;1.20;;;11.50;99.90;;;;;;5019686;28;20457;-24
2024/02/22 07:06:40;;;;;;;1.57;1.40;;;11.50;99.90;;;;;;5043419;28;20848;-25
2024/02/22 07:09:08;;;;;;;1.83;1.30;;;11.50;99.90;;;;;;5057086;28;21273;-23
2024/02/22 07:11:35;;;;;;;2.03;1.50;;;11.50;99.90;;;;;;5023514;28;20952;-23
2024/02/22 07:14:01;;;;;;;1.43;1.33;;;11.50;99.90;;;;;;5039462;28;20446;-24
2024/02/22 07:16:31;;;;;;;2.83;1.37;;;11.50;99.90;;;;;;5040054;28;20860;-24
2024/02/22 07:19:02;;;;;;;2.50;1.70;;;11.50;99.90;;;;;;5039751;28;20464;-24
2024/02/22 07:21:35;;;;;;;1.63;1.53;;;11.50;99.90;;;;;;5057794;28;20490;-24
2024/02/22 07:24:03;;;;;;;3.80;1.33;;;11.50;99.90;;;;;;5048995;28;21465;-25
2024/02/22 07:26:33;;;;;;;1.70;1.60;;;11.60;99.90;;;;;;5058197;28;20457;-24
2024/02/22 07:29:02;;;;;;;1.60;1.50;;;11.50;99.90;;;;;;5039820;28;20433;-24
2024/02/22 07:31:28;;;;;;;2.27;1.40;;;11.50;99.90;;;;;;5039736;28;20442;-24
2024/02/22 07:33:57;;;;;;;2.60;1.57;;;11.50;99.90;;;;;;5039863;28;20467;-24
2024/02/22 07:36:24;;;;;;;2.00;1.50;;;11.50;99.90;;;;;;5030492;28;20470;-25
2024/02/22 07:38:51;;;;;;;1.60;1.50;;;11.50;99.90;;;;;;5039836;28;20522;-24
2024/02/22 07:41:17;;;;;;;1.87;1.70;;;11.50;99.90;;;;;;5058283;28;20469;-24
2024/02/22 07:43:44;;;;;;;2.03;1.83;;;11.50;99.90;;;;;;5031459;28;20442;-25
2024/02/22 07:46:12;;;;;;;2.17;1.70;;;11.50;99.90;;;;;;5058747;28;20553;-24
2024/02/22 07:48:41;;;;;;;2.10;1.90;;;11.60;99.90;;;;;;5058434;28;20417;-25
2024/02/22 07:51:08;;;;;;;1.90;1.80;;;11.60;99.90;;;;;;5023786;28;20496;-24
2024/02/22 07:53:37;;;;;;;2.30;2.10;;;11.50;99.90;;;;;;5039655;28;20885;-23
2024/02/22 07:56:11;;;;;;;1.83;1.73;;;11.60;99.90;;;;;;5057857;28;20441;-24
2024/02/22 07:58:51;;;;;;;2.17;2.07;;;11.50;99.90;;;;;;5059691;28;20515;-25
2024/02/22 08:01:17;;;;;;;1.90;1.80;;;11.50;99.90;;;;;;5031135;28;20567;-24
2024/02/22 08:03:44;;;;;;;2.23;2.03;;;11.50;99.90;;;;;;5067079;28;20434;-25
2024/02/22 08:06:11;;;;;;;2.50;2.30;;;11.60;99.90;;;;;;5033505;28;20754;-25
2024/02/22 08:08:38;;;;;;;1.80;1.70;;;11.60;99.90;;;;;;5038633;28;20426;-25
2024/02/22 08:11:11;;;;;;;2.23;2.00;;;11.40;99.90;;;;;;5036613;28;20767;-25
2024/02/22 08:13:40;;;;;;;2.20;2.00;;;11.50;99.90;;;;;;5040574;28;20499;-25
2024/02/22 08:16:08;;;;;;;1.73;1.63;;;11.60;99.90;;;;;;5055019;28;20461;-25
2024/02/22 08:18:36;;;;;;;3.27;1.87;;;11.60;99.90;;;;;;5036593;28;20427;-24
2024/02/22 08:21:07;;;;;;;2.43;2.10;;;11.60;99.90;;;;;;5037375;28;20476;-25
2024/02/22 08:23:33;;;;;;;2.00;1.70;;;11.60;99.90;;;;;;5042796;28;20446;-25
2024/02/22 08:26:00;;;;;;;2.17;1.80;;;11.60;99.90;;;;;;5041615;28;20437;-25
2024/02/22 08:28:29;;;;;;;1.90;1.80;;;11.60;99.90;;;;;;5041416;28;20499;-24
2024/02/22 08:30:56;;;;;;;2.17;1.90;;;11.60;99.90;;;;;;5059044;28;20426;-25
2024/02/22 08:33:29;;;;;;;1.70;1.60;;;11.60;99.90;;;;;;5041803;28;20576;-25
2024/02/22 08:35:56;;;;;;;1.80;1.70;;;11.60;99.90;;;;;;5059058;28;20576;-25
2024/02/22 08:38:25;;;;;;;3.10;2.10;;;11.60;99.90;;;;;;5031710;28;20415;-25
2024/02/22 08:40:51;;;;;;;3.10;1.83;;;11.60;99.90;;;;;;5004770;28;20470;-25
2024/02/22 08:43:21;;;;;;;2.07;1.87;;;11.60;99.90;;;;;;5056230;28;20542;-25
2024/02/22 08:45:52;;;;;;;2.80;2.07;;;11.60;99.90;;;;;;5035629;28;20517;-25
2024/02/22 08:48:18;;;;;;;2.77;2.20;;;11.60;99.90;;;;;;5050403;28;20431;-24
2024/02/22 08:50:46;;;;;;;2.17;2.07;;;11.50;99.90;;;;;;5054177;28;20800;-25
2024/02/22 08:53:12;;;;;;;2.23;2.00;;;11.60;99.90;;;;;;5054772;28;20450;-25
2024/02/22 08:55:42;;;;;;;4.13;2.10;;;11.60;99.90;;;;;;5035762;28;20438;-25
2024/02/22 08:58:10;;;;;;;2.03;1.83;;;11.60;99.90;;;;;;5053720;28;20442;-25
2024/02/22 09:00:36;;;;;;;2.57;1.53;;;11.60;99.90;;;;;;5005378;28;20490;-30
2024/02/22 09:03:02;;;;;;;1.77;1.67;;;11.60;99.90;;;;;;5054691;28;20438;-25
2024/02/22 09:05:28;;;;;;;2.13;1.60;;;11.60;99.90;;;;;;5053293;28;20431;-25
2024/02/22 09:07:54;;;;;;;2.20;2.00;;;11.70;99.90;;;;;;5039339;28;20491;-25
2024/02/22 09:10:20;;;;;;;1.80;1.70;;;11.70;99.90;;;;;;5031751;28;20470;-25
2024/02/22 09:12:46;;;;;;;1.73;1.63;;;11.70;99.90;;;;;;5042805;28;20441;-24
2024/02/22 09:15:16;;;;;;;5.73;2.00;;;11.70;99.90;;;;;;5043892;28;20465;-25
2024/02/22 09:17:42;;;;;;;2.03;1.83;;;11.70;99.90;;;;;;5022351;28;20453;-25
2024/02/22 09:20:08;;;;;;;1.73;1.50;;;11.70;99.90;;;;;;5058361;28;20466;-24
2024/02/22 09:22:35;;;;;;;2.43;1.80;;;11.70;99.90;;;;;;5033448;28;20433;-24
2024/02/22 09:25:06;;;;;;;1.87;1.50;;;11.70;99.90;;;;;;5089287;22;20986;-25
2024/02/22 09:27:33;;;;;;;2.90;1.90;;;11.70;99.90;;;;;;4977251;28;20413;-25
2024/02/22 09:30:01;;;;;;;1.93;1.80;;;11.70;99.90;;;;;;4960546;28;20449;-25
2024/02/22 09:32:30;;;;;;;2.50;1.77;;;11.70;99.90;;;;;;4981338;28;20485;-25
2024/02/22 09:34:59;;;;;;;2.77;1.90;;;11.70;99.90;;;;;;4962705;28;20456;-25
2024/02/22 09:37:27;;;;;;;2.73;1.87;;;11.70;99.90;;;;;;4962022;28;20484;-25
2024/02/22 09:39:53;;;;;;;2.40;1.50;;;11.70;99.90;;;;;;4979146;28;21019;-25
2024/02/22 09:42:20;;;;;;;4.60;1.83;;;11.70;99.90;;;;;;4979533;28;20414;-25
2024/02/22 09:44:49;;;;;;;1.90;1.80;;;11.70;99.90;;;;;;4961949;28;20987;-26
2024/02/22 09:47:15;;;;;;;1.90;1.80;;;11.70;99.90;;;;;;4978085;28;21384;-26
2024/02/22 09:49:42;;;;;;;2.73;1.77;;;11.70;99.90;;;;;;4980008;28;20413;-27
2024/02/22 09:52:11;;;;;;;1.83;1.73;;;11.70;99.90;;;;;;4979156;28;21640;-27
2024/02/22 09:54:37;;;;;;;1.80;1.70;;;11.80;99.90;;;;;;4981333;28;20433;-28
2024/02/22 09:57:03;;;;;;;2.33;2.13;;;11.80;99.90;;;;;;4981217;28;20481;-26
2024/02/22 09:59:36;;;;;;;2.30;2.03;;;11.80;99.90;;;;;;4984802;28;20797;-26
2024/02/22 10:02:06;;;;;;;1.80;1.70;;;11.80;99.90;;;;;;4967874;28;20576;-28
2024/02/22 10:04:32;;;;;;;2.70;1.80;;;11.80;99.90;;;;;;4981772;28;20460;-26
2024/02/22 10:07:04;;;;;;;2.23;1.63;;;11.80;99.90;;;;;;4966013;28;20426;-28
2024/02/22 10:09:45;;;;;;;1.90;1.80;;;11.80;99.90;;;;;;4962533;28;20430;-25
2024/02/22 10:12:22;;;;;;;2.17;1.83;;;11.80;99.90;;;;;;4978553;28;20449;-25
2024/02/22 10:14:49;;;;;;;4.53;2.00;;;11.80;99.90;;;;;;4983393;28;20960;-26
2024/02/22 10:17:20;;;;;;;1.97;1.73;;;11.80;99.90;;;;;;4982243;28;20417;-27
2024/02/22 10:19:54;;;;;;;2.00;1.90;;;11.80;99.90;;;;;;4960864;28;21153;-26
2024/02/22 10:22:25;;;;;;;1.70;1.57;;;11.80;99.90;;;;;;4956272;28;20456;-25
2024/02/22 10:24:52;;;;;;;3.17;1.67;;;11.80;99.90;;;;;;4976859;28;20716;-26
2024/02/22 10:27:22;;;;;;;2.30;1.53;;;11.80;99.90;;;;;;4958767;28;20444;-25
2024/02/22 10:29:49;;;;;;;1.70;1.60;;;11.80;99.90;;;;;;4952395;28;20473;-25
2024/02/22 10:32:20;;;;;;;2.03;1.80;;;11.90;99.90;;;;;;4993193;28;20438;-26
2024/02/22 10:34:53;;;;;;;1.70;1.60;;;11.90;99.90;;;;;;4972406;28;20523;-24
2024/02/22 10:37:19;;;;;;;1.87;1.63;;;11.80;99.90;;;;;;4991567;28;20473;-26
2024/02/22 10:39:46;;;;;;;1.97;1.60;;;11.80;99.90;;;;;;4990776;28;21369;-26
2024/02/22 10:42:17;;;;;;;2.17;1.97;;;11.90;99.90;;;;;;4990798;28;20433;-27
2024/02/22 10:44:44;;;;;;;2.63;1.70;;;11.90;99.90;;;;;;4988630;28;20770;-26
2024/02/22 10:47:11;;;;;;;1.70;1.60;;;11.90;99.90;;;;;;4959422;28;20441;-27
2024/02/22 10:49:38;;;;;;;3.10;1.60;;;11.90;99.90;;;;;;4988374;28;20784;-26
2024/02/22 10:52:07;;;;;;;1.83;1.70;;;12.00;99.90;;;;;;4986931;28;20460;-26
2024/02/22 10:54:34;;;;;;;1.63;1.40;;;12.00;99.90;;;;;;4973260;28;20541;-26
2024/02/22 10:57:02;;;;;;;1.40;1.30;;;12.00;99.90;;;;;;4987686;28;20712;-26
2024/02/22 10:59:29;;;;;;;1.70;1.60;;;12.00;99.90;;;;;;4968015;28;20515;-26
2024/02/22 11:01:57;;;;;;;2.33;1.60;;;12.00;99.90;;;;;;4969405;28;20558;-26
2024/02/22 11:04:23;;;;;;;2.17;1.33;;;12.00;99.90;;;;;;4986598;28;21079;-26
2024/02/22 11:06:52;;;;;;;1.67;1.30;;;12.00;99.90;;;;;;4985391;28;20513;-26
2024/02/22 11:09:25;;;;;;;2.70;1.40;;;12.00;99.90;;;;;;4959015;28;20511;-26
2024/02/22 11:12:01;;;;;;;1.70;1.60;;;12.00;99.90;;;;;;4973214;28;20433;-26
2024/02/22 11:14:33;;;;;;;1.80;1.70;;;12.10;99.90;;;;;;4982833;28;21068;-25
2024/02/22 11:17:00;;;;;;;3.87;1.70;;;12.10;99.90;;;;;;4975832;28;20424;-26
2024/02/22 11:19:27;;;;;;;3.10;1.40;;;12.00;99.90;;;;;;4988580;28;21419;-26
2024/02/22 11:21:53;;;;;;;1.20;1.10;;;12.10;99.90;;;;;;4980102;28;20433;-26
2024/02/22 11:24:25;;;;;;;1.40;1.30;;;12.10;99.90;;;;;;4973886;28;20573;-26
2024/02/22 11:26:55;;;;;;;2.30;1.50;;;12.10;99.90;;;;;;4972228;28;20511;-25
2024/02/22 11:29:29;;;;;;;1.50;1.40;;;12.10;99.90;;;;;;4988782;28;21109;-26
2024/02/22 11:31:59;;;;;;;1.70;1.60;;;12.10;99.90;;;;;;4986890;28;20456;-26
2024/02/22 11:34:26;;;;;;;1.67;1.57;;;12.10;99.90;;;;;;4973798;28;21157;-25
2024/02/22 11:36:57;;;;;;;1.67;1.40;;;12.10;99.90;;;;;;4991957;28;20475;-26
2024/02/22 11:39:27;;;;;;;6.10;1.63;;;12.20;99.90;;;;;;4985003;28;20477;-27
2024/02/22 11:41:53;;;;;;;2.50;1.33;;;12.10;99.90;;;;;;4959737;28;20434;-26
2024/02/22 11:44:22;;;;;;;2.70;1.57;;;12.10;99.90;;;;;;4994759;28;20432;-26
2024/02/22 11:46:50;;;;;;;1.73;1.63;;;12.20;99.90;;;;;;4993583;28;20437;-26
2024/02/22 11:49:19;;;;;;;1.60;1.50;;;12.20;99.90;;;;;;4989492;28;20452;-26
2024/02/22 11:51:45;;;;;;;1.70;1.60;;;12.20;99.90;;;;;;4953172;28;20441;-25
2024/02/22 11:54:15;;;;;;;2.00;1.80;;;12.20;99.90;;;;;;4941152;28;20615;-25
2024/02/22 11:56:44;;;;;;;1.73;1.57;;;12.10;99.90;;;;;;4987728;28;20420;-25
2024/02/22 11:59:13;;;;;;;1.70;1.60;;;12.20;99.90;;;;;;4989428;28;20504;-26
2024/02/22 12:01:41;;;;;;;1.50;1.40;;;12.20;99.90;;;;;;4969018;28;20441;-26
2024/02/22 12:04:08;;;;;;;3.43;1.70;;;12.20;99.90;;;;;;4990706;28;20541;-25
2024/02/22 12:06:34;;;;;;;2.63;1.43;;;12.30;99.90;;;;;;4979919;28;20519;-24
2024/02/22 12:09:02;;;;;;;1.87;1.67;;;12.30;99.90;;;;;;4993377;28;20475;-26
2024/02/22 12:11:28;;;;;;;1.33;1.23;;;12.30;99.90;;;;;;4993555;28;20445;-26
2024/02/22 12:13:55;;;;;;;1.90;1.70;;;12.30;99.90;;;;;;4983766;28;20449;-27
2024/02/22 12:16:21;;;;;;;2.00;1.50;;;12.30;99.90;;;;;;4998188;28;20455;-27
2024/02/22 12:18:51;;;;;;;2.37;1.30;;;12.30;99.90;;;;;;4978253;28;20459;-28
2024/02/22 12:21:29;;;;;;;1.80;1.50;;;12.30;99.90;;;;;;4993596;28;20867;-27
2024/02/22 12:23:59;;;;;;;1.47;1.37;;;12.30;99.90;;;;;;4975474;28;20448;-27
2024/02/22 12:26:36;;;;;;;1.60;1.50;;;12.30;99.90;;;;;;4986695;28;20432;-25
2024/02/22 12:29:02;;;;;;;2.60;1.30;;;12.30;99.90;;;;;;4986992;28;21206;-25
2024/02/22 12:31:38;;;;;;;1.73;1.63;;;12.40;99.90;;;;;;4973370;28;20436;-26
2024/02/22 12:34:05;;;;;;;2.40;1.77;;;12.40;99.90;;;;;;4990283;28;21138;-26
2024/02/22 12:36:37;;;;;;;1.80;1.70;;;12.30;99.90;;;;;;4975114;28;20443;-37
2024/02/22 12:39:03;;;;;;;1.47;1.37;;;12.40;99.90;;;;;;4986597;28;20801;-37
2024/02/22 12:41:29;;;;;;;1.50;1.40;;;12.40;99.90;;;;;;4953526;28;20507;-39
2024/02/22 12:43:57;;;;;;;1.60;1.40;;;12.40;99.90;;;;;;4993962;28;20456;-37
2024/02/22 12:46:27;;;;;;;2.00;1.33;;;12.40;99.90;;;;;;4992756;28;20459;-37
2024/02/22 12:48:54;;;;;;;1.73;1.50;;;12.50;99.90;;;;;;4985006;28;20542;-36
2024/02/22 12:51:20;;;;;;;3.83;1.57;;;12.50;99.90;;;;;;4974038;28;20480;-39